Terminal Aerodrome Forecast
Issued by NWS

Home | Current Version | Previous Version | Graphics & Text | Print | Product List | Glossary On
Versions: 1 2 3 4 5 6 7 8 9 10 11 12 13 14 15 16 17 18
000
FTUS43 KABR 241000 AAC
TAFATY
TAF AMD
KATY 241011Z 2410/2506 17006KT P6SM -SHRA VCTS BKN020 OVC060CB
      TEMPO 2410/2412 -TSRA
     FM241200 VRB06KT 4SM BR BKN006 BKN015
     FM241600 24013G22KT P6SM BKN015
     FM241900 24014G23KT P6SM SCT025
     FM250100 25006KT P6SM FEW250=

USA.gov is the U.S. government's official web portal to all federal, state and local government web resources and services.